createdAt,value
2022-10-29T00:00:43.370Z,97.50
2022-10-29T00:03:09.724Z,97.50
2022-10-29T00:05:36.024Z,97.50
2022-10-29T00:08:02.478Z,97.60
2022-10-29T00:10:28.620Z,97.60
2022-10-29T00:12:54.697Z,97.60
2022-10-29T00:15:21.482Z,97.70
2022-10-29T00:17:47.523Z,97.80
2022-10-29T00:20:13.546Z,97.80
2022-10-29T00:22:39.570Z,97.80
2022-10-29T00:25:06.005Z,97.80
2022-10-29T00:27:32.063Z,97.90
2022-10-29T00:29:58.121Z,97.90
2022-10-29T00:32:24.215Z,97.90
2022-10-29T00:34:50.251Z,98.00
2022-10-29T00:37:16.360Z,98.10
2022-10-29T00:39:42.437Z,98.10
2022-10-29T00:42:16.962Z,98.10
2022-10-29T00:44:43.162Z,98.10
2022-10-29T00:47:30.910Z,98.00
2022-10-29T00:50:10.773Z,98.20
2022-10-29T00:52:43.419Z,98.20
2022-10-29T00:55:11.357Z,98.30
2022-10-29T00:57:40.768Z,98.40
2022-10-29T01:00:07.869Z,98.40
2022-10-29T01:02:35.278Z,98.50
2022-10-29T01:05:03.431Z,98.50
2022-10-29T01:07:29.651Z,98.40
2022-10-29T01:09:55.861Z,98.30
2022-10-29T01:12:50.723Z,98.20
2022-10-29T01:15:33.883Z,98.20
2022-10-29T01:18:12.102Z,98.10
2022-10-29T01:20:56.803Z,98.20
2022-10-29T01:24:00.648Z,98.30
2022-10-29T01:26:58.643Z,98.40
2022-10-29T01:30:12.264Z,98.30
2022-10-29T01:32:58.631Z,98.40
2022-10-29T01:35:48.422Z,98.40
2022-10-29T01:38:39.624Z,98.30
2022-10-29T01:41:31.023Z,98.40
2022-10-29T01:44:05.271Z,98.40
2022-10-29T01:46:39.927Z,98.40
2022-10-29T01:49:12.326Z,98.30
2022-10-29T01:51:43.585Z,98.40
2022-10-29T01:54:11.222Z,98.40
2022-10-29T01:56:37.723Z,98.40
2022-10-29T01:59:14.427Z,98.30
2022-10-29T02:02:13.075Z,98.40
2022-10-29T02:05:08.036Z,98.50
2022-10-29T02:07:56.385Z,98.60
2022-10-29T02:10:37.857Z,98.60
2022-10-29T02:13:04.034Z,98.60
2022-10-29T02:15:42.895Z,98.60
2022-10-29T02:18:09.239Z,98.60
2022-10-29T02:20:40.571Z,98.50
2022-10-29T02:23:06.631Z,98.50
2022-10-29T02:25:33.957Z,98.60
2022-10-29T02:28:00.051Z,98.60
2022-10-29T02:30:26.111Z,98.70
2022-10-29T02:32:52.204Z,98.80
2022-10-29T02:35:18.265Z,98.80
2022-10-29T02:37:44.408Z,98.80
2022-10-29T02:40:11.217Z,98.80
2022-10-29T02:42:37.347Z,98.90
2022-10-29T02:45:03.747Z,98.80
2022-10-29T02:47:29.827Z,98.80
2022-10-29T02:49:55.834Z,98.90
2022-10-29T02:52:21.919Z,98.90
2022-10-29T02:54:48.026Z,98.80
2022-10-29T02:57:14.133Z,98.90
2022-10-29T02:59:40.119Z,98.90
2022-10-29T03:02:06.283Z,98.90
2022-10-29T03:04:32.566Z,99.00
2022-10-29T03:06:59.216Z,99.00
2022-10-29T03:09:25.346Z,99.00
2022-10-29T03:11:51.487Z,99.10
2022-10-29T03:14:17.574Z,99.00
2022-10-29T03:16:43.667Z,98.90
2022-10-29T03:19:09.911Z,99.00
2022-10-29T03:21:36.202Z,98.90
2022-10-29T03:24:02.290Z,98.90
2022-10-29T03:26:28.360Z,98.90
2022-10-29T03:28:55.527Z,99.00
2022-10-29T03:31:21.613Z,99.00
2022-10-29T03:33:47.738Z,99.00
2022-10-29T03:36:13.901Z,99.10
2022-10-29T03:38:39.950Z,99.00
2022-10-29T03:41:09.623Z,99.00
2022-10-29T03:43:38.854Z,99.00
2022-10-29T03:46:05.825Z,99.00
2022-10-29T03:48:32.534Z,98.90
2022-10-29T03:51:00.995Z,98.80
2022-10-29T03:53:28.154Z,98.70
2022-10-29T03:55:55.550Z,98.70
2022-10-29T03:58:22.202Z,98.70
2022-10-29T04:01:05.170Z,98.70
2022-10-29T04:03:33.070Z,98.80
2022-10-29T04:06:01.091Z,98.80
2022-10-29T04:08:27.193Z,98.90
2022-10-29T04:10:53.454Z,98.90
2022-10-29T04:13:20.063Z,99.00
2022-10-29T04:15:46.439Z,99.00
2022-10-29T04:18:13.023Z,98.90
2022-10-29T04:20:47.630Z,98.90
2022-10-29T04:28:58.388Z,98.80
2022-10-29T04:31:24.458Z,98.70
2022-10-29T04:33:53.260Z,98.60
2022-10-29T04:36:19.261Z,98.60
2022-10-29T04:38:45.302Z,98.60
2022-10-29T04:41:11.431Z,98.70
2022-10-29T04:43:37.497Z,98.80
2022-10-29T04:46:03.735Z,98.90
2022-10-29T04:48:29.751Z,99.00
2022-10-29T04:50:55.784Z,99.00
2022-10-29T04:53:21.822Z,99.00
2022-10-29T04:55:48.166Z,98.90
2022-10-29T04:58:19.589Z,98.90
2022-10-29T05:00:45.661Z,98.90
2022-10-29T05:03:11.878Z,98.90
2022-10-29T05:05:39.221Z,98.70
2022-10-29T05:08:06.101Z,98.70
2022-10-29T05:10:37.321Z,98.70
2022-10-29T05:13:11.312Z,98.80
2022-10-29T05:15:39.481Z,98.90
2022-10-29T05:18:06.357Z,98.80
2022-10-29T05:20:35.575Z,98.90
2022-10-29T05:23:06.846Z,98.90
2022-10-29T05:25:35.551Z,98.90
2022-10-29T05:28:18.204Z,99.10
2022-10-29T05:30:45.410Z,99.10
2022-10-29T05:33:14.731Z,99.10
2022-10-29T05:35:40.764Z,99.00
2022-10-29T05:38:07.035Z,98.90
2022-10-29T05:40:33.281Z,98.90
2022-10-29T05:42:59.601Z,99.00
2022-10-29T05:45:26.123Z,98.90
2022-10-29T05:48:00.118Z,99.00
2022-10-29T05:50:27.475Z,98.90
2022-10-29T05:53:01.664Z,99.00
2022-10-29T05:55:29.218Z,99.00
2022-10-29T05:57:59.392Z,99.00
2022-10-29T06:00:27.328Z,99.10
2022-10-29T06:02:53.913Z,99.00
2022-10-29T06:05:20.525Z,98.90
2022-10-29T06:07:52.125Z,99.00
2022-10-29T06:10:18.171Z,99.00
2022-10-29T06:12:44.199Z,99.00
2022-10-29T06:15:10.421Z,99.00
2022-10-29T06:17:45.322Z,99.00
2022-10-29T06:20:24.106Z,98.90
2022-10-29T06:22:57.173Z,98.90
2022-10-29T06:25:29.439Z,98.90
2022-10-29T06:28:05.190Z,98.90
2022-10-29T06:30:34.167Z,98.80
2022-10-29T06:33:01.175Z,98.70
2022-10-29T06:35:28.082Z,98.80
2022-10-29T06:37:54.715Z,99.00
2022-10-29T06:40:21.519Z,99.00
2022-10-29T06:42:47.877Z,99.00
2022-10-29T06:45:18.311Z,99.10
2022-10-29T06:47:45.166Z,99.10
2022-10-29T06:50:13.127Z,99.10
2022-10-29T06:52:39.217Z,99.10
2022-10-29T06:55:06.572Z,99.10
2022-10-29T06:57:32.639Z,99.10
2022-10-29T07:00:02.411Z,99.10
2022-10-29T07:02:31.785Z,99.20
2022-10-29T07:04:57.882Z,99.20
2022-10-29T07:07:27.537Z,99.20
2022-10-29T07:09:53.587Z,99.20
2022-10-29T07:12:19.644Z,99.10
2022-10-29T07:14:45.799Z,99.20
2022-10-29T07:17:11.874Z,99.20
2022-10-29T07:19:37.922Z,99.20
2022-10-29T07:22:06.361Z,99.20
2022-10-29T07:24:32.418Z,99.20
2022-10-29T07:26:58.418Z,99.20
2022-10-29T07:29:24.805Z,99.30
2022-10-29T07:31:50.841Z,99.30
2022-10-29T07:34:22.142Z,99.30
2022-10-29T07:36:48.217Z,99.30
2022-10-29T07:39:14.288Z,99.30
2022-10-29T07:41:42.624Z,99.30
2022-10-29T07:44:09.051Z,99.20
2022-10-29T07:46:35.215Z,99.20
2022-10-29T07:49:01.586Z,99.10
2022-10-29T07:51:27.654Z,99.00
2022-10-29T07:53:53.684Z,98.90
2022-10-29T07:56:20.001Z,98.70
2022-10-29T07:58:46.409Z,98.40
2022-10-29T08:01:12.607Z,98.10
2022-10-29T08:03:38.793Z,97.80
2022-10-29T08:06:05.161Z,97.60
2022-10-29T08:08:34.095Z,97.40
2022-10-29T08:11:09.524Z,96.90
2022-10-29T08:13:35.608Z,96.30
2022-10-29T08:16:02.105Z,96.10
2022-10-29T08:18:28.180Z,96.00
2022-10-29T08:20:54.287Z,95.60
2022-10-29T08:23:20.387Z,95.10
2022-10-29T08:25:46.475Z,94.70
2022-10-29T08:28:17.670Z,94.50
2022-10-29T08:30:49.619Z,94.20
2022-10-29T08:33:16.558Z,92.00
2022-10-29T08:35:43.007Z,89.80
2022-10-29T08:38:09.083Z,85.70
2022-10-29T08:40:47.114Z,83.20
2022-10-29T08:43:44.559Z,80.80
2022-10-29T08:46:35.014Z,80.80
2022-10-29T08:49:05.154Z,76.50
2022-10-29T08:51:39.113Z,76.10
2022-10-29T08:57:06.208Z,74.50
2022-10-29T08:59:39.645Z,75.80
2022-10-29T09:02:14.818Z,77.20
2022-10-29T09:04:40.884Z,78.40
2022-10-29T09:07:46.448Z,78.80
2022-10-29T09:10:38.494Z,79.80
2022-10-29T09:13:57.125Z,80.90
2022-10-29T09:16:46.832Z,82.20
2022-10-29T09:19:21.295Z,83.40
2022-10-29T09:22:08.660Z,84.30
2022-10-29T09:25:03.807Z,85.30
2022-10-29T09:27:55.370Z,86.00
2022-10-29T09:30:22.147Z,86.70
2022-10-29T09:33:11.013Z,87.20
2022-10-29T09:35:52.079Z,87.70
2022-10-29T09:38:22.605Z,87.60
2022-10-29T09:40:48.990Z,87.50
2022-10-29T09:43:24.254Z,87.50
2022-10-29T09:46:20.404Z,87.90
2022-10-29T09:49:13.356Z,88.20
2022-10-29T09:51:48.169Z,88.40
2022-10-29T09:54:28.204Z,88.10
2022-10-29T09:56:56.638Z,88.00
2022-10-29T09:59:41.271Z,87.90
2022-10-29T10:02:32.441Z,88.20
2022-10-29T10:05:06.676Z,88.20
2022-10-29T10:07:32.902Z,88.30
2022-10-29T10:10:01.734Z,88.40
2022-10-29T10:12:36.869Z,88.50
2022-10-29T10:15:26.146Z,88.20
2022-10-29T10:17:57.962Z,87.30
2022-10-29T10:20:44.760Z,86.50
2022-10-29T10:23:16.873Z,85.90
2022-10-29T10:25:42.999Z,84.60
2022-10-29T10:28:26.699Z,82.80
2022-10-29T10:31:15.082Z,80.00
2022-10-29T10:34:06.897Z,77.20
2022-10-29T10:36:37.978Z,72.40
2022-10-29T10:39:04.259Z,73.10
2022-10-29T10:41:33.791Z,73.10
2022-10-29T10:44:02.709Z,68.40
2022-10-29T10:46:37.429Z,65.80
2022-10-29T10:49:17.250Z,66.90
2022-10-29T10:51:52.264Z,67.70
2022-10-29T10:54:32.712Z,69.60
2022-10-29T10:57:05.420Z,69.50
2022-10-29T10:59:51.667Z,68.10
2022-10-29T11:02:33.761Z,66.50
2022-10-29T11:05:29.098Z,64.80
2022-10-29T11:08:08.150Z,64.00
2022-10-29T11:10:43.362Z,60.60
2022-10-29T11:13:24.241Z,57.80
2022-10-29T11:15:58.073Z,56.90
2022-10-29T11:18:45.161Z,55.90
2022-10-29T11:21:18.650Z,53.40
2022-10-29T11:24:19.679Z,51.20
2022-10-29T11:27:03.362Z,50.20
2022-10-29T11:29:54.000Z,52.70
2022-10-29T11:32:31.697Z,53.50
2022-10-29T11:35:14.435Z,54.90
2022-10-29T11:38:06.117Z,56.70
2022-10-29T11:40:37.991Z,57.60
2022-10-29T11:43:13.241Z,58.50
2022-10-29T11:46:01.536Z,58.70
2022-10-29T11:48:39.430Z,60.10
2022-10-29T11:51:51.293Z,61.60
2022-10-29T11:54:43.803Z,62.50
2022-10-29T11:57:19.247Z,62.50
2022-10-29T12:00:18.003Z,63.00
2022-10-29T12:03:02.923Z,63.80
2022-10-29T12:05:58.150Z,63.80
2022-10-29T12:08:44.160Z,63.30
2022-10-29T12:11:20.613Z,62.60
2022-10-29T12:14:05.133Z,62.40
2022-10-29T12:16:41.926Z,61.60
2022-10-29T12:19:35.958Z,61.50
2022-10-29T12:22:14.079Z,61.00
2022-10-29T12:25:03.802Z,60.20
2022-10-29T12:27:51.707Z,59.80
2022-10-29T12:30:18.488Z,58.90
2022-10-29T12:32:53.464Z,59.60
2022-10-29T12:35:28.818Z,57.70
2022-10-29T12:38:40.980Z,56.50
2022-10-29T12:41:22.878Z,56.20
2022-10-29T12:43:51.273Z,56.00
2022-10-29T12:46:39.419Z,55.80
2022-10-29T12:49:33.237Z,55.70
2022-10-29T12:52:28.361Z,56.10
2022-10-29T12:54:55.693Z,57.10
2022-10-29T12:57:32.769Z,57.50
2022-10-29T13:00:23.407Z,58.30
2022-10-29T13:02:51.361Z,59.00
2022-10-29T13:05:18.951Z,59.20
2022-10-29T13:07:44.948Z,59.20
2022-10-29T13:10:22.953Z,59.80
2022-10-29T13:13:00.666Z,60.30
2022-10-29T13:16:07.655Z,60.60
2022-10-29T13:18:41.748Z,61.40
2022-10-29T13:21:08.308Z,61.80
2022-10-29T13:23:36.581Z,61.30
2022-10-29T13:26:07.307Z,61.40
2022-10-29T13:28:36.057Z,62.00
2022-10-29T13:31:07.411Z,61.80
2022-10-29T13:33:36.259Z,62.70
2022-10-29T13:36:02.240Z,63.10
2022-10-29T13:39:04.552Z,63.90
2022-10-29T13:41:41.355Z,64.30
2022-10-29T13:44:16.106Z,64.70
2022-10-29T13:47:00.270Z,65.10
2022-10-29T13:49:46.646Z,65.60
2022-10-29T13:52:23.518Z,66.60
2022-10-29T13:55:21.727Z,67.00
2022-10-29T13:58:03.360Z,66.90
2022-10-29T14:00:31.979Z,67.10
2022-10-29T14:03:20.963Z,67.00
2022-10-29T14:05:55.938Z,67.20
2022-10-29T14:08:39.884Z,67.70
2022-10-29T14:11:17.084Z,67.90
2022-10-29T14:13:49.054Z,68.40
2022-10-29T14:16:19.867Z,68.80
2022-10-29T14:18:47.929Z,69.30
2022-10-29T14:21:26.474Z,69.60
2022-10-29T14:24:03.054Z,69.90
2022-10-29T14:26:30.913Z,70.80
2022-10-29T14:29:12.805Z,71.10
2022-10-29T14:31:38.832Z,71.40
2022-10-29T14:34:06.451Z,71.60
2022-10-29T14:36:40.263Z,72.20
2022-10-29T14:39:32.409Z,72.60
2022-10-29T14:42:13.455Z,73.00
2022-10-29T14:44:40.360Z,73.20
2022-10-29T14:47:35.460Z,73.70
2022-10-29T14:50:16.760Z,74.00
2022-10-29T14:52:48.490Z,74.30
2022-10-29T14:55:34.272Z,74.20
2022-10-29T15:00:57.245Z,75.10
2022-10-29T15:03:26.212Z,75.60
2022-10-29T15:06:18.769Z,75.70
2022-10-29T15:08:53.102Z,76.30
2022-10-29T15:11:39.935Z,76.50
2022-10-29T15:14:24.456Z,77.00
2022-10-29T15:16:50.659Z,77.40
2022-10-29T15:19:17.403Z,77.50
2022-10-29T15:21:43.883Z,78.00
2022-10-29T15:24:20.605Z,78.40
2022-10-29T15:27:05.793Z,78.80
2022-10-29T15:29:42.024Z,79.20
2022-10-29T15:32:14.304Z,79.40
2022-10-29T15:35:00.680Z,79.70
2022-10-29T15:37:32.801Z,80.20
2022-10-29T15:40:09.644Z,80.50
2022-10-29T15:42:36.678Z,80.60
2022-10-29T15:45:05.444Z,81.00
2022-10-29T15:47:31.676Z,81.20
2022-10-29T15:49:57.706Z,81.30
2022-10-29T15:52:30.009Z,81.40
2022-10-29T15:54:56.242Z,81.60
2022-10-29T15:57:22.251Z,81.70
2022-10-29T15:59:48.632Z,82.00
2022-10-29T16:02:19.024Z,82.20
2022-10-29T16:04:45.243Z,82.40
2022-10-29T16:07:16.017Z,82.40
2022-10-29T16:09:46.243Z,82.70
2022-10-29T16:12:12.412Z,83.00
2022-10-29T16:14:38.557Z,83.00
2022-10-29T16:17:14.083Z,83.20
2022-10-29T16:19:40.318Z,83.30
2022-10-29T16:22:25.479Z,83.30
2022-10-29T16:24:51.588Z,83.60
2022-10-29T16:27:17.813Z,83.70
2022-10-29T16:29:46.276Z,83.80
2022-10-29T16:32:16.847Z,84.00
2022-10-29T16:34:43.474Z,84.30
2022-10-29T16:37:15.004Z,84.50
2022-10-29T16:39:43.861Z,84.80
2022-10-29T16:42:32.553Z,84.80
2022-10-29T16:45:01.820Z,85.20
2022-10-29T16:47:27.969Z,85.20
2022-10-29T16:49:54.061Z,85.50
2022-10-29T16:52:26.341Z,85.70
2022-10-29T16:54:53.680Z,85.90
2022-10-29T16:57:20.451Z,86.00
2022-10-29T16:59:46.459Z,86.20
2022-10-29T17:02:12.523Z,86.20
2022-10-29T17:04:38.614Z,86.10
2022-10-29T17:07:04.745Z,86.10
2022-10-29T17:09:34.492Z,86.20
2022-10-29T17:12:01.581Z,86.20
2022-10-29T17:14:27.609Z,86.30
2022-10-29T17:19:20.082Z,85.80
2022-10-29T17:21:46.183Z,87.00
2022-10-29T17:24:12.280Z,86.40
2022-10-29T17:26:38.370Z,86.60
2022-10-29T17:29:04.452Z,86.60
2022-10-29T17:31:30.498Z,86.70
2022-10-29T17:33:56.618Z,86.80
2022-10-29T17:36:28.077Z,87.00
2022-10-29T17:38:54.480Z,87.10
2022-10-29T17:41:20.541Z,87.40
2022-10-29T17:43:46.547Z,87.60
2022-10-29T17:46:14.804Z,87.90
2022-10-29T17:48:41.460Z,88.00
2022-10-29T17:51:08.641Z,88.30
2022-10-29T17:53:38.539Z,88.40
2022-10-29T17:56:04.924Z,88.50
2022-10-29T17:58:31.017Z,88.60
2022-10-29T18:01:07.754Z,88.70
2022-10-29T18:03:36.575Z,88.70
2022-10-29T18:06:09.050Z,88.70
2022-10-29T18:08:36.963Z,88.90
2022-10-29T18:11:09.034Z,89.10
2022-10-29T18:13:40.689Z,89.00
2022-10-29T18:16:28.419Z,89.00
2022-10-29T18:19:01.927Z,88.90
2022-10-29T18:21:29.050Z,88.80
2022-10-29T18:23:55.241Z,88.90
2022-10-29T18:26:35.790Z,88.40
2022-10-29T18:29:07.500Z,88.30
2022-10-29T18:31:34.721Z,88.00
2022-10-29T18:34:04.839Z,88.00
2022-10-29T18:36:34.063Z,88.10
2022-10-29T18:39:07.003Z,88.00
2022-10-29T18:41:36.067Z,88.10
2022-10-29T18:44:02.266Z,88.10
2022-10-29T18:46:28.338Z,88.10
2022-10-29T18:48:54.404Z,88.20
2022-10-29T18:51:24.835Z,88.10
2022-10-29T18:53:52.881Z,88.10
2022-10-29T18:56:20.943Z,88.30
2022-10-29T18:58:47.332Z,88.50
2022-10-29T19:01:19.060Z,88.40
2022-10-29T19:03:52.948Z,89.20
2022-10-29T19:06:19.962Z,88.70
2022-10-29T19:08:46.421Z,88.70
2022-10-29T19:11:17.927Z,88.70
2022-10-29T19:13:50.123Z,88.80
2022-10-29T19:16:16.556Z,88.90
2022-10-29T19:21:15.564Z,88.70
2022-10-29T19:23:47.908Z,88.70
2022-10-29T19:26:17.112Z,88.70
2022-10-29T19:28:44.725Z,88.90
2022-10-29T19:31:16.763Z,89.00
2022-10-29T19:33:50.364Z,89.10
2022-10-29T19:36:18.166Z,89.20
2022-10-29T19:38:44.506Z,89.20
2022-10-29T19:41:11.634Z,89.40
2022-10-29T19:43:40.842Z,89.40
2022-10-29T19:46:22.080Z,89.30
2022-10-29T19:48:53.241Z,89.40
2022-10-29T19:51:22.500Z,89.40
2022-10-29T19:53:51.845Z,89.40
2022-10-29T19:56:18.682Z,89.60
2022-10-29T19:58:51.199Z,89.60
2022-10-29T20:01:18.212Z,89.80
2022-10-29T20:03:45.610Z,89.80
2022-10-29T20:06:12.677Z,90.00
2022-10-29T20:08:39.014Z,90.00
2022-10-29T20:11:05.592Z,89.90
2022-10-29T20:13:32.098Z,89.70
2022-10-29T20:15:58.260Z,89.60
2022-10-29T20:18:24.665Z,89.80
2022-10-29T20:20:55.084Z,90.20
2022-10-29T20:23:21.812Z,90.00
2022-10-29T20:25:47.885Z,90.00
2022-10-29T20:28:13.950Z,90.00
2022-10-29T20:30:40.023Z,90.20
2022-10-29T20:33:06.132Z,90.20
2022-10-29T20:35:32.181Z,90.20
2022-10-29T20:37:58.643Z,90.20
2022-10-29T20:40:25.011Z,90.30
2022-10-29T20:42:52.095Z,90.40
2022-10-29T20:45:27.156Z,90.50
2022-10-29T20:47:53.170Z,90.60
2022-10-29T20:50:19.255Z,90.60
2022-10-29T20:52:48.624Z,90.60
2022-10-29T20:55:15.244Z,90.60
2022-10-29T20:57:41.356Z,90.50
2022-10-29T21:00:08.032Z,90.50
2022-10-29T21:02:34.133Z,90.40
2022-10-29T21:05:00.246Z,90.30
2022-10-29T21:07:26.313Z,90.40
2022-10-29T21:09:52.338Z,90.40
2022-10-29T21:12:18.693Z,90.40
2022-10-29T21:14:44.828Z,90.40
2022-10-29T21:17:11.395Z,90.50
2022-10-29T21:19:37.433Z,90.60
2022-10-29T21:22:03.543Z,90.60
2022-10-29T21:24:30.433Z,90.60
2022-10-29T21:26:56.991Z,90.70
2022-10-29T21:29:25.527Z,90.70
2022-10-29T21:31:51.523Z,90.80
2022-10-29T21:34:17.555Z,90.90
2022-10-29T21:36:43.717Z,90.80
2022-10-29T21:39:09.737Z,90.80
2022-10-29T21:41:38.715Z,91.00
2022-10-29T21:44:05.104Z,90.60
2022-10-29T21:46:34.808Z,90.60
2022-10-29T21:49:00.875Z,90.70
2022-10-29T21:51:29.644Z,90.60
2022-10-29T21:53:55.746Z,90.60
2022-10-29T21:56:22.028Z,90.60
2022-10-29T21:58:51.712Z,90.50
2022-10-29T22:01:18.099Z,90.60
2022-10-29T22:03:45.789Z,90.70
2022-10-29T22:06:17.832Z,90.70
2022-10-29T22:08:44.887Z,90.80
2022-10-29T22:11:12.246Z,90.80
2022-10-29T22:13:38.325Z,90.80
2022-10-29T22:16:25.283Z,90.80
2022-10-29T22:18:52.170Z,90.90
2022-10-29T22:21:20.534Z,90.90
2022-10-29T22:23:51.785Z,91.00
2022-10-29T22:26:19.738Z,91.00
2022-10-29T22:28:46.512Z,90.90
2022-10-29T22:31:14.316Z,91.00
2022-10-29T22:33:41.373Z,91.00
2022-10-29T22:36:13.444Z,91.00
2022-10-29T22:38:42.910Z,91.00
2022-10-29T22:41:33.030Z,91.10
2022-10-29T22:43:59.501Z,91.10
2022-10-29T22:46:27.023Z,90.90
2022-10-29T22:48:53.393Z,90.90
2022-10-29T22:51:23.348Z,90.90
2022-10-29T22:53:50.488Z,90.90
2022-10-29T22:56:18.773Z,91.10
2022-10-29T22:58:45.238Z,90.80
2022-10-29T23:01:22.213Z,90.80
2022-10-29T23:03:49.987Z,90.90
2022-10-29T23:06:19.103Z,90.90
2022-10-29T23:08:46.181Z,90.90
2022-10-29T23:11:20.339Z,91.00
2022-10-29T23:13:48.088Z,91.00
2022-10-29T23:16:14.590Z,91.10
2022-10-29T23:18:41.020Z,91.20
2022-10-29T23:21:08.342Z,91.20
2022-10-29T23:23:35.539Z,91.20
2022-10-29T23:26:02.982Z,91.20
2022-10-29T23:28:31.139Z,91.20
2022-10-29T23:30:59.042Z,91.30
2022-10-29T23:33:25.543Z,91.40
2022-10-29T23:35:51.641Z,91.50
2022-10-29T23:38:17.758Z,91.50
2022-10-29T23:40:44.559Z,91.60
2022-10-29T23:43:11.678Z,91.70
2022-10-29T23:45:39.903Z,91.80
2022-10-29T23:48:06.412Z,91.80
2022-10-29T23:50:32.667Z,91.80
2022-10-29T23:52:59.087Z,92.00
2022-10-29T23:55:25.419Z,92.20
2022-10-29T23:57:51.507Z,92.00
